createdAt,value
2018-12-26T00:01:54.800Z,15.47
2018-12-26T00:04:24.693Z,12.50
2018-12-26T00:06:54.072Z,14.67
2018-12-26T00:09:23.439Z,13.17
2018-12-26T00:11:52.834Z,12.97
2018-12-26T00:14:22.192Z,14.63
2018-12-26T00:16:51.548Z,13.27
2018-12-26T00:19:20.925Z,12.67
2018-12-26T00:21:50.302Z,14.90
2018-12-26T00:24:19.735Z,14.30
2018-12-26T00:26:49.844Z,14.53
2018-12-26T00:29:19.202Z,11.57
2018-12-26T00:31:48.560Z,16.43
2018-12-26T00:34:17.943Z,13.20
2018-12-26T00:36:47.304Z,12.50
2018-12-26T00:39:16.650Z,16.73
2018-12-26T00:41:46.040Z,15.53
2018-12-26T00:44:15.409Z,17.37
2018-12-26T00:46:44.770Z,14.30
2018-12-26T00:49:15.456Z,16.63
2018-12-26T00:51:44.823Z,16.07
2018-12-26T00:54:14.231Z,14.30
2018-12-26T00:56:43.599Z,14.83
2018-12-26T00:59:12.972Z,14.10
2018-12-26T01:01:43.272Z,16.70
2018-12-26T01:04:14.465Z,16.43
2018-12-26T01:06:43.851Z,14.83
2018-12-26T01:09:13.242Z,15.57
2018-12-26T01:11:43.276Z,16.50
2018-12-26T01:14:12.635Z,16.47
2018-12-26T01:16:41.997Z,16.53
2018-12-26T01:19:11.374Z,13.87
2018-12-26T01:21:40.747Z,14.00
2018-12-26T01:24:11.053Z,17.50
2018-12-26T01:26:40.355Z,15.97
2018-12-26T01:29:09.728Z,14.57
2018-12-26T01:31:39.106Z,16.23
2018-12-26T01:34:09.474Z,14.17
2018-12-26T01:36:38.839Z,17.33
2018-12-26T01:39:08.203Z,15.93
2018-12-26T01:41:37.583Z,17.47
2018-12-26T01:44:06.940Z,19.00
2018-12-26T01:46:36.307Z,18.77
2018-12-26T01:49:05.696Z,13.67
2018-12-26T01:51:35.064Z,18.23
2018-12-26T01:54:04.488Z,17.03
2018-12-26T01:56:34.632Z,15.65
2018-12-26T01:59:03.985Z,18.17
2018-12-26T02:01:33.429Z,16.83
2018-12-26T02:04:03.916Z,15.87
2018-12-26T02:06:33.327Z,13.73
2018-12-26T02:09:03.615Z,14.10
2018-12-26T02:11:33.035Z,17.13
2018-12-26T02:14:02.396Z,16.80
2018-12-26T02:16:31.759Z,17.43
2018-12-26T02:19:01.468Z,17.53
2018-12-26T02:21:30.854Z,13.53
2018-12-26T02:24:00.238Z,15.67
2018-12-26T02:26:36.410Z,13.80
2018-12-26T02:29:00.694Z,12.63
2018-12-26T02:31:30.049Z,15.60
2018-12-26T02:33:59.426Z,13.90
2018-12-26T02:36:28.800Z,16.30
2018-12-26T02:38:58.168Z,16.80
2018-12-26T02:41:27.606Z,13.73
2018-12-26T02:43:56.998Z,16.27
2018-12-26T02:46:26.364Z,11.20
2018-12-26T02:48:55.734Z,15.40
2018-12-26T02:51:25.099Z,16.43
2018-12-26T02:53:54.466Z,16.40
2018-12-26T02:56:23.830Z,15.13
2018-12-26T02:58:53.194Z,12.40
2018-12-26T03:01:22.570Z,16.73
2018-12-26T03:03:52.028Z,16.73
2018-12-26T03:06:22.829Z,16.53
2018-12-26T03:08:52.300Z,15.80
2018-12-26T03:11:21.628Z,15.33
2018-12-26T03:13:51.056Z,16.80
2018-12-26T03:16:20.480Z,14.60
2018-12-26T03:18:49.864Z,14.13
2018-12-26T03:21:19.230Z,16.37
2018-12-26T03:23:48.935Z,16.60
2018-12-26T03:26:18.369Z,14.93
2018-12-26T03:28:47.774Z,13.83
2018-12-26T03:31:17.140Z,15.67
2018-12-26T03:33:46.534Z,15.53
2018-12-26T03:36:15.964Z,16.43
2018-12-26T03:38:45.342Z,14.80
2018-12-26T03:41:14.729Z,16.17
2018-12-26T03:43:44.926Z,15.93
2018-12-26T03:46:15.565Z,16.70
2018-12-26T03:48:47.023Z,16.27
2018-12-26T03:51:16.404Z,13.58
2018-12-26T03:53:45.787Z,15.17
2018-12-26T03:56:15.191Z,16.03
2018-12-26T03:58:44.685Z,16.23
2018-12-26T04:01:14.056Z,15.90
2018-12-26T04:03:43.468Z,16.83
2018-12-26T04:06:12.918Z,18.53
2018-12-26T04:08:42.738Z,17.47
2018-12-26T04:11:13.036Z,17.47
2018-12-26T04:13:42.404Z,17.77
2018-12-26T04:16:11.926Z,16.83
2018-12-26T04:18:42.164Z,15.73
2018-12-26T04:21:11.660Z,15.83
2018-12-26T04:23:41.052Z,16.87
2018-12-26T04:26:10.438Z,16.83
2018-12-26T04:28:39.817Z,17.17
2018-12-26T04:31:09.191Z,16.80
2018-12-26T04:33:38.612Z,14.40
2018-12-26T04:36:07.986Z,15.93
2018-12-26T04:38:37.365Z,15.93
2018-12-26T04:41:06.810Z,16.37
2018-12-26T04:43:36.190Z,14.83
2018-12-26T04:46:05.579Z,16.27
2018-12-26T04:48:34.972Z,16.67
2018-12-26T04:51:04.343Z,15.43
2018-12-26T04:53:33.710Z,15.70
2018-12-26T04:56:03.448Z,16.33
2018-12-26T04:58:32.845Z,17.93
2018-12-26T05:01:02.186Z,15.57
2018-12-26T05:03:31.645Z,14.00
2018-12-26T05:06:01.003Z,16.23
2018-12-26T05:08:30.413Z,16.67
2018-12-26T05:11:00.324Z,15.93
2018-12-26T05:13:29.685Z,14.20
2018-12-26T05:15:59.039Z,15.67
2018-12-26T05:18:28.745Z,16.50
2018-12-26T05:20:58.116Z,17.10
2018-12-26T05:23:27.509Z,16.17
2018-12-26T05:25:56.883Z,17.90
2018-12-26T05:28:26.321Z,16.50
2018-12-26T05:30:55.706Z,17.97
2018-12-26T05:33:25.104Z,16.87
2018-12-26T05:35:54.456Z,15.90
2018-12-26T05:38:23.862Z,17.23
2018-12-26T05:40:56.755Z,15.30
2018-12-26T05:43:26.129Z,15.30
2018-12-26T05:45:55.491Z,18.03
2018-12-26T05:48:24.900Z,16.53
2018-12-26T05:50:54.290Z,15.15
2018-12-26T05:53:23.671Z,17.07
2018-12-26T05:55:53.183Z,15.77
2018-12-26T05:58:22.555Z,15.77
2018-12-26T06:00:51.917Z,16.17
2018-12-26T06:03:21.610Z,16.20
2018-12-26T06:05:50.982Z,18.70
2018-12-26T06:08:20.334Z,16.10
2018-12-26T06:10:49.714Z,16.80
2018-12-26T06:13:19.631Z,15.77
2018-12-26T06:15:49.023Z,16.63
2018-12-26T06:18:18.434Z,19.37
2018-12-26T06:20:47.816Z,17.50
2018-12-26T06:23:17.250Z,17.37
2018-12-26T06:25:46.655Z,17.53
2018-12-26T06:28:16.084Z,18.73
2018-12-26T06:30:45.464Z,16.57
2018-12-26T06:33:14.854Z,16.37
2018-12-26T06:35:44.244Z,15.98
2018-12-26T06:38:13.614Z,17.27
2018-12-26T06:40:43.006Z,19.83
2018-12-26T06:43:12.387Z,17.67
2018-12-26T06:45:46.179Z,19.93
2018-12-26T06:48:15.647Z,19.03
2018-12-26T06:50:45.225Z,18.87
2018-12-26T06:53:14.789Z,20.17
2018-12-26T06:55:44.282Z,20.50
2018-12-26T06:58:14.070Z,19.97
2018-12-26T07:00:43.674Z,19.85
2018-12-26T07:03:13.620Z,18.70
2018-12-26T07:05:43.146Z,21.60
2018-12-26T07:08:14.645Z,19.93
2018-12-26T07:10:44.500Z,20.40
2018-12-26T07:13:16.625Z,21.93
2018-12-26T07:15:46.903Z,17.83
2018-12-26T07:18:16.423Z,19.93
2018-12-26T07:20:49.258Z,20.07
2018-12-26T07:23:18.694Z,21.53
2018-12-26T07:25:48.394Z,18.60
2018-12-26T07:28:17.896Z,20.40
2018-12-26T07:30:47.705Z,19.97
2018-12-26T07:33:18.267Z,20.17
2018-12-26T07:35:50.591Z,20.13
2018-12-26T07:38:19.956Z,22.17
2018-12-26T07:40:50.007Z,20.88
2018-12-26T07:43:19.382Z,22.03
2018-12-26T07:45:48.760Z,19.80
2018-12-26T07:48:18.142Z,19.70
2018-12-26T07:50:47.507Z,21.67
2018-12-26T07:53:16.887Z,20.73
2018-12-26T07:55:46.259Z,27.58
2018-12-26T07:58:17.733Z,28.87
2018-12-26T08:00:46.719Z,24.33
2018-12-26T08:03:16.452Z,21.07
2018-12-26T08:05:45.828Z,23.57
2018-12-26T08:08:15.201Z,21.23
2018-12-26T08:10:44.616Z,21.63
2018-12-26T08:13:14.000Z,21.17
2018-12-26T08:15:43.379Z,20.57
2018-12-26T08:18:13.306Z,20.73
2018-12-26T08:20:42.665Z,18.87
2018-12-26T08:23:12.026Z,18.27
2018-12-26T08:25:41.731Z,20.03
2018-12-26T08:28:11.094Z,19.97
2018-12-26T08:30:40.451Z,20.30
2018-12-26T08:33:09.849Z,19.93
2018-12-26T08:35:39.223Z,19.45
2018-12-26T08:38:08.587Z,21.23
2018-12-26T08:40:37.994Z,22.17
2018-12-26T08:43:07.369Z,20.70
2018-12-26T08:45:36.741Z,21.20
2018-12-26T08:48:06.144Z,23.60
2018-12-26T08:50:35.485Z,20.43
2018-12-26T08:53:04.853Z,23.77
2018-12-26T08:55:34.272Z,22.20
2018-12-26T08:58:03.624Z,21.87
2018-12-26T09:00:33.050Z,23.67
2018-12-26T09:03:02.423Z,21.37
2018-12-26T09:05:31.791Z,21.87
2018-12-26T09:08:01.156Z,23.80
2018-12-26T09:10:30.914Z,22.20
2018-12-26T09:13:00.305Z,22.57
2018-12-26T09:15:29.667Z,21.07
2018-12-26T09:17:59.054Z,20.67
2018-12-26T09:20:28.910Z,21.40
2018-12-26T09:22:58.269Z,21.60
2018-12-26T09:25:27.781Z,22.13
2018-12-26T09:27:57.157Z,22.37
2018-12-26T09:30:26.522Z,25.30
2018-12-26T09:32:55.956Z,21.00
2018-12-26T09:35:25.320Z,19.80
2018-12-26T09:37:54.685Z,20.73
2018-12-26T09:40:24.061Z,18.67
2018-12-26T09:42:53.410Z,18.07
2018-12-26T09:45:22.781Z,19.23
2018-12-26T09:47:52.182Z,17.50
2018-12-26T09:50:21.549Z,17.23
2018-12-26T09:52:50.917Z,16.57
2018-12-26T09:55:20.405Z,17.17
2018-12-26T09:57:49.749Z,17.57
2018-12-26T10:00:19.134Z,17.33
2018-12-26T10:02:48.514Z,15.97
2018-12-26T10:05:17.872Z,15.07
2018-12-26T10:07:47.247Z,15.40
2018-12-26T10:10:17.015Z,16.80
2018-12-26T10:12:46.367Z,17.50
2018-12-26T10:15:15.764Z,16.30
2018-12-26T10:17:45.190Z,16.03
2018-12-26T10:20:14.539Z,16.13
2018-12-26T10:22:44.214Z,17.60
2018-12-26T10:25:13.606Z,17.37
2018-12-26T10:27:42.955Z,16.27
2018-12-26T10:30:12.328Z,16.73
2018-12-26T10:32:41.730Z,16.53
2018-12-26T10:35:11.114Z,15.32
2018-12-26T10:37:41.135Z,15.90
2018-12-26T10:40:10.652Z,15.20
2018-12-26T10:42:40.006Z,16.03
2018-12-26T10:45:09.387Z,16.07
2018-12-26T10:47:38.837Z,14.97
2018-12-26T10:50:10.349Z,17.20
2018-12-26T10:52:39.725Z,15.90
2018-12-26T10:55:09.083Z,15.70
2018-12-26T10:57:38.459Z,14.93
2018-12-26T11:00:11.275Z,15.87
2018-12-26T11:02:41.069Z,16.70
2018-12-26T11:05:10.500Z,15.97
2018-12-26T11:07:39.860Z,16.17
2018-12-26T11:10:09.232Z,16.60
2018-12-26T11:12:38.583Z,17.00
2018-12-26T11:15:09.566Z,16.77
2018-12-26T11:17:39.124Z,16.27
2018-12-26T11:20:13.964Z,15.73
2018-12-26T11:22:43.369Z,15.10
2018-12-26T11:25:13.029Z,16.13
2018-12-26T11:27:42.388Z,16.43
2018-12-26T11:30:15.527Z,15.77
2018-12-26T11:32:44.920Z,15.13
2018-12-26T11:35:14.372Z,14.47
2018-12-26T11:37:43.735Z,15.47
2018-12-26T11:40:13.129Z,15.10
2018-12-26T11:42:42.489Z,13.77
2018-12-26T11:45:11.856Z,15.37
2018-12-26T11:47:41.246Z,14.87
2018-12-26T11:50:10.611Z,15.47
2018-12-26T11:52:39.997Z,15.90
2018-12-26T11:55:09.358Z,15.97
2018-12-26T11:57:38.717Z,17.87
2018-12-26T12:00:09.263Z,19.47
2018-12-26T12:02:38.702Z,16.70
2018-12-26T12:05:08.094Z,15.53
2018-12-26T12:07:37.447Z,15.10
2018-12-26T12:10:07.843Z,15.33
2018-12-26T12:12:37.201Z,15.07
2018-12-26T12:15:06.975Z,15.70
2018-12-26T12:17:36.366Z,14.87
2018-12-26T12:20:09.983Z,15.10
2018-12-26T12:22:39.431Z,16.23
2018-12-26T12:25:09.189Z,14.47
2018-12-26T12:27:38.932Z,15.47
2018-12-26T12:30:08.446Z,14.23
2018-12-26T12:32:37.808Z,14.27
2018-12-26T12:35:08.105Z,14.50
2018-12-26T12:37:37.525Z,15.30
2018-12-26T12:40:10.829Z,15.70
2018-12-26T12:42:40.193Z,18.13
2018-12-26T12:45:09.709Z,14.87
2018-12-26T12:47:39.092Z,14.43
2018-12-26T12:50:09.015Z,14.73
2018-12-26T12:52:38.372Z,17.00
2018-12-26T12:55:07.754Z,16.63
2018-12-26T12:57:37.117Z,19.27
2018-12-26T13:00:08.781Z,15.73
2018-12-26T13:02:38.920Z,15.03
2018-12-26T13:05:08.250Z,15.10
2018-12-26T13:07:37.611Z,15.20
2018-12-26T13:10:07.120Z,14.63
2018-12-26T13:12:36.485Z,16.53
2018-12-26T13:15:06.815Z,16.62
2018-12-26T13:17:36.210Z,21.50
2018-12-26T13:20:08.666Z,16.77
2018-12-26T13:22:38.007Z,15.70
2018-12-26T13:25:07.712Z,15.33
2018-12-26T13:27:37.072Z,16.90
2018-12-26T13:30:10.312Z,16.93
2018-12-26T13:32:39.697Z,17.10
2018-12-26T13:35:09.052Z,16.93
2018-12-26T13:37:44.837Z,14.83
2018-12-26T13:40:14.207Z,14.47
2018-12-26T13:42:43.561Z,15.00
2018-12-26T13:45:12.953Z,15.17
2018-12-26T13:47:42.301Z,14.23
2018-12-26T13:50:11.650Z,15.37
2018-12-26T13:52:41.034Z,14.07
2018-12-26T13:55:11.238Z,14.30
2018-12-26T13:57:40.591Z,17.37
2018-12-26T14:00:11.405Z,14.93
2018-12-26T14:02:40.751Z,14.27
2018-12-26T14:05:10.102Z,11.93
2018-12-26T14:07:39.926Z,13.73
2018-12-26T14:10:10.973Z,15.37
2018-12-26T14:12:40.323Z,14.30
2018-12-26T14:15:10.630Z,14.47
2018-12-26T14:17:39.984Z,14.50
2018-12-26T14:20:09.337Z,15.97
2018-12-26T14:22:38.714Z,14.07
2018-12-26T14:25:09.003Z,14.87
2018-12-26T14:27:38.342Z,14.40
2018-12-26T14:30:11.323Z,14.60
2018-12-26T14:32:40.477Z,15.43
2018-12-26T14:35:09.837Z,14.07
2018-12-26T14:37:39.220Z,14.43
2018-12-26T14:40:08.625Z,14.33
2018-12-26T14:42:37.968Z,14.27
2018-12-26T14:45:07.332Z,12.87
2018-12-26T14:47:36.689Z,12.63
2018-12-26T14:50:07.691Z,12.43
2018-12-26T14:52:38.061Z,13.30
2018-12-26T14:55:07.411Z,12.47
2018-12-26T14:57:36.820Z,11.73
2018-12-26T15:00:07.353Z,12.25
2018-12-26T15:02:36.700Z,14.10
2018-12-26T15:05:06.703Z,15.70
2018-12-26T15:07:36.140Z,16.80
2018-12-26T15:10:06.915Z,15.78
2018-12-26T15:12:36.276Z,15.80
2018-12-26T15:15:07.157Z,15.90
2018-12-26T15:17:36.508Z,16.23
2018-12-26T15:20:07.438Z,15.75
2018-12-26T15:22:36.806Z,16.00
2018-12-26T15:25:06.290Z,15.57
2018-12-26T15:27:35.632Z,16.63
2018-12-26T15:30:06.685Z,17.27
2018-12-26T15:32:36.045Z,15.90
2018-12-26T15:35:06.605Z,15.40
2018-12-26T15:37:36.319Z,16.93
2018-12-26T15:40:10.702Z,14.50
2018-12-26T15:42:40.061Z,17.30
2018-12-26T15:45:09.432Z,16.20
2018-12-26T15:47:38.778Z,16.53
2018-12-26T15:50:08.696Z,17.73
2018-12-26T15:52:38.701Z,16.37
2018-12-26T15:55:08.068Z,14.93
2018-12-26T15:57:37.413Z,16.73
2018-12-26T16:00:09.363Z,15.63
2018-12-26T16:02:38.717Z,16.10
2018-12-26T16:05:08.445Z,15.30
2018-12-26T16:07:37.833Z,14.87
2018-12-26T16:10:08.404Z,14.30
2018-12-26T16:12:37.748Z,14.60
2018-12-26T16:15:09.167Z,15.60
2018-12-26T16:17:38.542Z,15.77
2018-12-26T16:20:10.203Z,15.17
2018-12-26T16:22:39.758Z,16.20
2018-12-26T16:25:10.007Z,14.57
2018-12-26T16:27:39.372Z,16.40
2018-12-26T16:30:10.191Z,14.10
2018-12-26T16:32:39.531Z,14.37
2018-12-26T16:35:09.138Z,14.93
2018-12-26T16:37:39.191Z,15.00
2018-12-26T16:40:08.732Z,15.47
2018-12-26T16:42:38.087Z,14.80
2018-12-26T16:45:07.585Z,15.20
2018-12-26T16:47:36.931Z,15.87
2018-12-26T16:50:07.899Z,14.23
2018-12-26T16:52:37.316Z,14.90
2018-12-26T16:55:07.879Z,14.50
2018-12-26T16:57:37.232Z,15.70
2018-12-26T17:00:11.060Z,16.67
2018-12-26T17:02:40.421Z,14.97
2018-12-26T17:05:09.854Z,15.93
2018-12-26T17:07:39.290Z,16.33
2018-12-26T17:10:16.332Z,16.23
2018-12-26T17:12:45.677Z,16.93
2018-12-26T17:15:15.140Z,15.77
2018-12-26T17:17:44.492Z,16.30
2018-12-26T17:20:13.916Z,15.57
2018-12-26T17:22:43.394Z,13.97
2018-12-26T17:25:14.663Z,17.30
2018-12-26T17:27:43.897Z,17.07
2018-12-26T17:30:13.826Z,19.23
2018-12-26T17:32:43.176Z,17.23
2018-12-26T17:35:12.535Z,15.67
2018-12-26T17:37:41.992Z,18.73
2018-12-26T17:40:11.801Z,17.90
2018-12-26T17:42:41.133Z,19.83
2018-12-26T17:45:10.870Z,18.47
2018-12-26T17:47:40.221Z,18.10
2018-12-26T17:50:39.801Z,20.00
2018-12-26T17:53:16.208Z,19.17
2018-12-26T17:56:07.907Z,19.03
2018-12-26T17:58:53.672Z,18.77
2018-12-26T18:01:30.758Z,14.90
2018-12-26T18:04:00.108Z,19.33
2018-12-26T18:06:29.461Z,15.80
2018-12-26T18:08:58.875Z,15.47
2018-12-26T18:11:28.228Z,19.65
2018-12-26T18:13:57.584Z,20.17
2018-12-26T18:16:26.988Z,16.37
2018-12-26T18:18:56.331Z,17.93
2018-12-26T18:21:25.686Z,18.20
2018-12-26T18:23:55.111Z,15.37
2018-12-26T18:26:24.472Z,17.83
2018-12-26T18:28:53.890Z,17.20
2018-12-26T18:31:23.268Z,16.30
2018-12-26T18:33:52.891Z,14.70
2018-12-26T18:36:22.254Z,14.37
2018-12-26T18:38:51.613Z,12.90
2018-12-26T18:41:21.027Z,11.70
2018-12-26T18:43:50.781Z,13.93
2018-12-26T18:46:20.605Z,9.87
2018-12-26T18:48:49.955Z,14.23
2018-12-26T18:51:19.315Z,12.53
2018-12-26T18:53:48.695Z,10.53
2018-12-26T18:56:18.074Z,12.33
2018-12-26T18:58:47.451Z,13.93
2018-12-26T19:01:16.824Z,12.70
2018-12-26T19:03:46.198Z,13.93
2018-12-26T19:06:15.581Z,13.57
2018-12-26T19:08:45.026Z,12.17
2018-12-26T19:11:14.411Z,11.23
2018-12-26T19:13:43.766Z,13.03
2018-12-26T19:16:13.160Z,13.63
2018-12-26T19:18:42.537Z,10.83
2018-12-26T19:21:11.890Z,11.40
2018-12-26T19:23:41.273Z,12.93
2018-12-26T19:26:10.641Z,11.23
2018-12-26T19:28:40.018Z,12.50
2018-12-26T19:31:09.695Z,14.00
2018-12-26T19:33:39.063Z,11.87
2018-12-26T19:36:08.426Z,8.97
2018-12-26T19:38:37.815Z,10.57
2018-12-26T19:41:07.197Z,12.50
2018-12-26T19:43:36.584Z,12.53
2018-12-26T19:46:06.260Z,12.47
2018-12-26T19:48:35.621Z,12.57
2018-12-26T19:51:04.992Z,12.77
2018-12-26T19:53:35.590Z,13.87
2018-12-26T19:56:04.976Z,13.57
2018-12-26T19:58:34.335Z,9.50
2018-12-26T20:01:03.818Z,13.67
2018-12-26T20:03:33.180Z,12.47
2018-12-26T20:06:02.559Z,13.90
2018-12-26T20:08:31.959Z,13.50
2018-12-26T20:11:01.332Z,15.03
2018-12-26T20:13:30.687Z,13.60
2018-12-26T20:16:00.154Z,12.97
2018-12-26T20:18:29.497Z,13.93
2018-12-26T20:20:58.861Z,11.13
2018-12-26T20:23:28.235Z,11.47
2018-12-26T20:25:57.616Z,14.27
2018-12-26T20:28:27.012Z,14.63
2018-12-26T20:30:56.371Z,14.17
2018-12-26T20:33:25.720Z,11.00
2018-12-26T20:35:55.106Z,12.67
2018-12-26T20:38:24.618Z,14.73
2018-12-26T20:40:53.982Z,12.57
2018-12-26T20:43:23.344Z,13.63
2018-12-26T20:45:52.729Z,13.20
2018-12-26T20:48:22.726Z,11.27
2018-12-26T20:50:52.110Z,12.43
2018-12-26T20:53:21.565Z,9.33
2018-12-26T20:55:50.926Z,12.97
2018-12-26T20:58:20.290Z,14.07
2018-12-26T21:00:49.780Z,12.67
2018-12-26T21:03:19.155Z,13.50
2018-12-26T21:05:48.525Z,14.87
2018-12-26T21:08:17.905Z,14.40
2018-12-26T21:10:47.287Z,11.18
2018-12-26T21:13:16.671Z,12.07
2018-12-26T21:15:46.100Z,11.90
2018-12-26T21:18:15.508Z,10.63
2018-12-26T21:20:44.904Z,12.07
2018-12-26T21:23:15.546Z,12.10
2018-12-26T21:25:46.716Z,10.60
2018-12-26T21:28:16.046Z,13.17
2018-12-26T21:30:45.427Z,10.77
2018-12-26T21:33:14.873Z,12.57
2018-12-26T21:35:44.250Z,13.47
2018-12-26T21:38:13.630Z,13.80
2018-12-26T21:40:42.999Z,14.13
2018-12-26T21:43:12.403Z,10.90
2018-12-26T21:45:42.133Z,15.23
2018-12-26T21:48:11.489Z,11.50
2018-12-26T21:50:41.386Z,11.28
2018-12-26T21:53:10.781Z,15.03
2018-12-26T21:55:40.158Z,11.27
2018-12-26T21:58:09.533Z,10.87
2018-12-26T22:00:38.918Z,12.07
2018-12-26T22:03:08.269Z,15.10
2018-12-26T22:05:37.774Z,11.73
2018-12-26T22:08:07.224Z,10.93
2018-12-26T22:10:36.589Z,16.13
2018-12-26T22:13:05.955Z,13.13
2018-12-26T22:15:35.344Z,16.82
2018-12-26T22:18:04.785Z,12.03
2018-12-26T22:20:34.137Z,12.30
2018-12-26T22:23:03.511Z,15.03
2018-12-26T22:25:32.882Z,13.93
2018-12-26T22:28:02.235Z,11.13
2018-12-26T22:30:32.056Z,12.43
2018-12-26T22:33:01.691Z,15.57
2018-12-26T22:35:32.540Z,14.13
2018-12-26T22:38:02.025Z,16.37
2018-12-26T22:40:31.407Z,16.07
2018-12-26T22:43:00.765Z,11.73
2018-12-26T22:45:30.167Z,17.47
2018-12-26T22:47:59.531Z,13.17
2018-12-26T22:50:28.905Z,13.50
2018-12-26T22:52:58.937Z,15.90
2018-12-26T22:55:28.299Z,13.60
2018-12-26T22:57:57.662Z,12.53
2018-12-26T23:00:28.679Z,14.00
2018-12-26T23:02:58.039Z,11.57
2018-12-26T23:05:27.402Z,14.17
2018-12-26T23:07:56.783Z,11.03
2018-12-26T23:10:26.137Z,13.70
2018-12-26T23:12:55.495Z,11.23
2018-12-26T23:15:24.886Z,10.70
2018-12-26T23:17:54.242Z,12.20
2018-12-26T23:20:23.609Z,13.57
2018-12-26T23:22:52.992Z,15.17
2018-12-26T23:25:22.344Z,15.43
2018-12-26T23:27:51.708Z,15.87
2018-12-26T23:30:21.077Z,15.83
2018-12-26T23:32:50.439Z,11.23
2018-12-26T23:35:19.805Z,14.40
2018-12-26T23:37:49.224Z,14.07
2018-12-26T23:40:18.596Z,17.97
2018-12-26T23:42:47.960Z,16.57
2018-12-26T23:45:17.340Z,15.55
2018-12-26T23:47:46.717Z,13.17
2018-12-26T23:50:16.085Z,18.03
2018-12-26T23:52:45.461Z,15.77
2018-12-26T23:55:14.824Z,14.13
2018-12-26T23:57:44.180Z,14.93
